createdAt,value
2018-12-02T00:00:54.524Z,3.10
2018-12-02T00:03:23.672Z,6.10
2018-12-02T00:05:52.588Z,5.20
2018-12-02T00:08:21.541Z,3.50
2018-12-02T00:10:50.423Z,3.10
2018-12-02T00:13:19.335Z,3.10
2018-12-02T00:15:48.287Z,3.73
2018-12-02T00:18:17.179Z,5.37
2018-12-02T00:20:46.075Z,3.60
2018-12-02T00:23:14.962Z,4.33
2018-12-02T00:25:43.863Z,4.62
2018-12-02T00:28:12.750Z,3.93
2018-12-02T00:30:41.664Z,3.33
2018-12-02T00:33:10.589Z,3.93
2018-12-02T00:35:39.507Z,3.80
2018-12-02T00:38:08.941Z,3.70
2018-12-02T00:40:37.837Z,3.90
2018-12-02T00:43:07.856Z,4.43
2018-12-02T00:45:37.658Z,4.00
2018-12-02T00:48:07.736Z,4.50
2018-12-02T00:50:36.669Z,4.23
2018-12-02T00:53:06.968Z,4.53
2018-12-02T00:55:43.025Z,5.13
2018-12-02T00:58:11.902Z,3.70
2018-12-02T01:00:40.808Z,6.55
2018-12-02T01:03:10.432Z,4.47
2018-12-02T01:05:39.337Z,6.55
2018-12-02T01:08:08.304Z,4.40
2018-12-02T01:10:37.409Z,4.17
2018-12-02T01:13:10.104Z,5.70
2018-12-02T01:15:40.221Z,4.33
2018-12-02T01:18:09.584Z,4.80
2018-12-02T01:20:39.303Z,5.08
2018-12-02T01:23:08.277Z,4.97
2018-12-02T01:25:37.261Z,4.20
2018-12-02T01:28:06.671Z,4.60
2018-12-02T01:30:35.697Z,5.40
2018-12-02T01:33:04.619Z,3.60
2018-12-02T01:35:33.493Z,5.07
2018-12-02T01:38:02.393Z,3.53
2018-12-02T01:40:31.283Z,3.87
2018-12-02T01:43:00.189Z,3.27
2018-12-02T01:45:29.122Z,4.33
2018-12-02T01:47:58.015Z,3.97
2018-12-02T01:50:27.213Z,4.90
2018-12-02T01:52:56.944Z,3.50
2018-12-02T01:55:25.862Z,3.13
2018-12-02T01:57:54.745Z,4.97
2018-12-02T02:00:27.781Z,3.43
2018-12-02T02:02:57.212Z,3.37
2018-12-02T02:05:26.851Z,4.43
2018-12-02T02:07:55.726Z,7.73
2018-12-02T02:10:28.318Z,4.37
2018-12-02T02:12:57.225Z,3.20
2018-12-02T02:15:26.139Z,3.50
2018-12-02T02:17:55.007Z,4.23
2018-12-02T02:20:24.705Z,3.50
2018-12-02T02:22:53.705Z,4.97
2018-12-02T02:25:23.505Z,3.80
2018-12-02T02:27:54.109Z,5.17
2018-12-02T02:30:24.152Z,8.23
2018-12-02T02:32:53.077Z,4.53
2018-12-02T02:35:22.543Z,3.80
2018-12-02T02:37:55.323Z,3.67
2018-12-02T02:40:30.651Z,3.80
2018-12-02T02:42:59.528Z,3.50
2018-12-02T02:45:28.434Z,3.70
2018-12-02T02:47:57.335Z,4.13
2018-12-02T02:50:26.546Z,5.00
2018-12-02T02:52:59.586Z,5.47
2018-12-02T02:55:28.506Z,5.27
2018-12-02T02:57:57.480Z,5.97
2018-12-02T03:00:29.549Z,5.40
2018-12-02T03:02:58.431Z,3.97
2018-12-02T03:05:27.296Z,4.47
2018-12-02T03:07:56.192Z,4.00
2018-12-02T03:10:25.089Z,5.20
2018-12-02T03:12:54.427Z,4.47
2018-12-02T03:15:23.926Z,4.73
2018-12-02T03:17:52.816Z,4.77
2018-12-02T03:20:22.529Z,4.20
2018-12-02T03:22:54.936Z,4.10
2018-12-02T03:25:24.811Z,3.90
2018-12-02T03:27:53.866Z,3.87
2018-12-02T03:30:23.430Z,5.30
2018-12-02T03:32:52.396Z,4.60
2018-12-02T03:35:22.243Z,4.22
2018-12-02T03:37:51.441Z,4.23
2018-12-02T03:40:27.488Z,3.40
2018-12-02T03:42:56.463Z,2.67
2018-12-02T03:45:28.537Z,5.00
2018-12-02T03:47:58.168Z,5.50
2018-12-02T03:50:27.059Z,4.23
2018-12-02T03:52:55.966Z,3.40
2018-12-02T03:55:24.849Z,3.10
2018-12-02T03:57:54.024Z,3.33
2018-12-02T04:00:24.219Z,3.00
2018-12-02T04:02:53.964Z,4.00
2018-12-02T04:05:26.433Z,3.27
2018-12-02T04:07:55.326Z,3.33
2018-12-02T04:10:24.218Z,3.03
2018-12-02T04:12:53.455Z,3.30
2018-12-02T04:15:25.655Z,3.30
2018-12-02T04:17:54.526Z,3.47
2018-12-02T04:20:23.428Z,4.37
2018-12-02T04:22:52.736Z,2.90
2018-12-02T04:25:25.462Z,3.73
2018-12-02T04:27:54.335Z,3.57
2018-12-02T04:30:23.726Z,3.13
2018-12-02T04:32:53.250Z,3.30
2018-12-02T04:35:25.811Z,4.03
2018-12-02T04:37:54.754Z,3.50
2018-12-02T04:40:23.640Z,3.43
2018-12-02T04:42:52.522Z,3.27
2018-12-02T04:45:21.407Z,4.00
2018-12-02T04:47:50.405Z,3.83
2018-12-02T04:50:25.430Z,3.73
2018-12-02T04:52:54.318Z,3.40
2018-12-02T04:55:23.222Z,3.20
2018-12-02T04:57:52.138Z,4.20
2018-12-02T05:00:21.491Z,4.23
2018-12-02T05:02:51.288Z,5.37
2018-12-02T05:05:24.098Z,5.30
2018-12-02T05:07:53.591Z,4.30
2018-12-02T05:10:22.616Z,4.47
2018-12-02T05:12:51.814Z,3.90
2018-12-02T05:15:21.386Z,4.43
2018-12-02T05:17:50.295Z,4.57
2018-12-02T05:20:20.220Z,4.20
2018-12-02T05:22:49.101Z,4.93
2018-12-02T05:25:18.746Z,4.90
2018-12-02T05:27:47.290Z,4.40
2018-12-02T05:30:22.739Z,4.57
2018-12-02T05:32:54.742Z,4.63
2018-12-02T05:35:23.606Z,5.70
2018-12-02T05:37:55.532Z,4.60
2018-12-02T05:40:24.699Z,4.07
2018-12-02T05:42:54.088Z,4.40
2018-12-02T05:45:23.209Z,4.50
2018-12-02T05:47:52.135Z,4.83
2018-12-02T05:50:24.823Z,4.90
2018-12-02T05:53:00.227Z,4.97
2018-12-02T05:55:30.380Z,5.00
2018-12-02T05:57:59.266Z,5.00
2018-12-02T06:00:28.160Z,5.67
2018-12-02T06:02:57.058Z,5.30
2018-12-02T06:05:25.966Z,5.23
2018-12-02T06:07:54.885Z,6.33
2018-12-02T06:10:23.867Z,5.80
2018-12-02T06:12:52.764Z,5.37
2018-12-02T06:15:21.929Z,5.53
2018-12-02T06:17:50.845Z,4.80
2018-12-02T06:20:26.520Z,6.37
2018-12-02T06:22:56.256Z,4.33
2018-12-02T06:25:25.160Z,5.23
2018-12-02T06:27:54.115Z,4.47
2018-12-02T06:30:29.448Z,4.60
2018-12-02T06:32:59.602Z,5.33
2018-12-02T06:35:28.533Z,4.30
2018-12-02T06:37:58.519Z,4.80
2018-12-02T06:40:28.319Z,4.40
2018-12-02T06:42:57.192Z,5.40
2018-12-02T06:45:26.118Z,6.12
2018-12-02T06:47:55.003Z,5.90
2018-12-02T06:50:27.679Z,5.07
2018-12-02T06:52:57.269Z,4.37
2018-12-02T06:55:59.849Z,4.43
2018-12-02T06:59:11.825Z,4.80
2018-12-02T07:02:24.000Z,5.50
2018-12-02T07:04:52.897Z,5.10
2018-12-02T07:07:21.769Z,3.77
2018-12-02T07:09:50.683Z,4.20
2018-12-02T07:12:19.550Z,4.40
2018-12-02T07:14:48.464Z,4.07
2018-12-02T07:17:17.364Z,4.53
2018-12-02T07:19:48.643Z,4.87
2018-12-02T07:22:20.874Z,5.03
2018-12-02T07:24:51.244Z,4.90
2018-12-02T07:27:20.135Z,9.50
2018-12-02T07:29:49.011Z,5.00
2018-12-02T07:32:17.891Z,5.07
2018-12-02T07:34:46.783Z,5.23
2018-12-02T07:37:20.421Z,6.27
2018-12-02T07:40:28.018Z,5.43
2018-12-02T07:42:56.949Z,6.00
2018-12-02T07:45:25.823Z,6.03
2018-12-02T07:47:54.720Z,5.73
2018-12-02T07:50:23.620Z,6.50
2018-12-02T07:52:52.529Z,6.83
2018-12-02T07:55:21.409Z,6.73
2018-12-02T07:57:50.284Z,10.40
2018-12-02T08:00:19.154Z,8.37
2018-12-02T08:02:48.101Z,9.70
2018-12-02T08:05:17.649Z,9.17
2018-12-02T08:07:48.081Z,9.80
2018-12-02T08:10:17.996Z,9.43
2018-12-02T08:12:46.887Z,9.60
2018-12-02T08:15:17.016Z,9.90
2018-12-02T08:17:45.912Z,12.13
2018-12-02T08:20:15.946Z,11.03
2018-12-02T08:22:51.121Z,10.77
2018-12-02T08:25:15.347Z,11.17
2018-12-02T08:27:44.252Z,11.93
2018-12-02T08:30:20.284Z,10.93
2018-12-02T08:32:49.184Z,11.03
2018-12-02T08:35:19.263Z,11.87
2018-12-02T08:37:52.072Z,11.90
2018-12-02T08:40:20.971Z,12.73
2018-12-02T08:42:49.876Z,12.07
2018-12-02T08:45:19.145Z,12.53
2018-12-02T08:47:48.047Z,11.70
2018-12-02T08:50:17.862Z,11.23
2018-12-02T08:52:47.895Z,11.37
2018-12-02T08:55:17.785Z,10.67
2018-12-02T08:57:47.075Z,14.33
2018-12-02T09:00:19.608Z,13.00
2018-12-02T09:03:08.692Z,16.62
2018-12-02T09:05:37.560Z,14.87
2018-12-02T09:08:07.945Z,14.80
2018-12-02T09:10:36.882Z,12.67
2018-12-02T09:13:07.761Z,10.07
2018-12-02T09:15:36.666Z,11.00
2018-12-02T09:18:07.799Z,13.13
2018-12-02T09:20:36.702Z,13.13
2018-12-02T09:23:07.194Z,16.80
2018-12-02T09:25:36.153Z,11.93
2018-12-02T09:28:05.409Z,12.90
2018-12-02T09:30:35.319Z,10.70
2018-12-02T09:33:04.239Z,9.97
2018-12-02T09:35:33.141Z,9.33
2018-12-02T09:38:02.037Z,10.33
2018-12-02T09:40:30.927Z,12.33
2018-12-02T09:42:59.844Z,12.40
2018-12-02T09:45:29.603Z,12.23
2018-12-02T09:48:00.211Z,10.23
2018-12-02T09:50:29.702Z,11.83
2018-12-02T09:52:59.676Z,10.73
2018-12-02T09:55:49.281Z,9.67
2018-12-02T09:58:26.514Z,9.73
2018-12-02T10:01:05.784Z,10.30
2018-12-02T10:03:42.225Z,10.43
2018-12-02T10:06:17.126Z,7.90
2018-12-02T10:08:46.722Z,8.17
2018-12-02T10:11:16.703Z,12.63
2018-12-02T10:13:46.555Z,10.73
2018-12-02T10:16:19.055Z,10.27
2018-12-02T10:18:46.706Z,9.30
2018-12-02T10:21:19.144Z,11.93
2018-12-02T10:23:49.122Z,8.23
2018-12-02T10:26:21.957Z,8.57
2018-12-02T10:28:54.366Z,8.27
2018-12-02T10:31:24.877Z,10.72
2018-12-02T10:33:54.519Z,12.58
2018-12-02T10:36:26.486Z,10.07
2018-12-02T10:38:56.400Z,8.63
2018-12-02T10:41:27.162Z,7.53
2018-12-02T10:43:56.630Z,9.00
2018-12-02T10:46:26.117Z,7.00
2018-12-02T10:48:57.277Z,7.30
2018-12-02T10:51:25.184Z,8.27
2018-12-02T10:54:00.043Z,11.10
2018-12-02T10:56:29.926Z,8.87
2018-12-02T10:58:59.349Z,10.23
2018-12-02T11:01:42.380Z,12.47
2018-12-02T11:04:14.973Z,11.80
2018-12-02T11:06:46.581Z,13.03
2018-12-02T11:09:18.883Z,17.57
2018-12-02T11:11:51.570Z,16.70
2018-12-02T11:14:28.439Z,19.20
2018-12-02T11:16:57.879Z,19.17
2018-12-02T11:19:29.108Z,17.40
2018-12-02T11:21:59.311Z,17.77
2018-12-02T11:24:29.285Z,17.03
2018-12-02T11:26:58.635Z,15.93
2018-12-02T11:29:33.687Z,17.50
2018-12-02T11:32:06.123Z,19.57
2018-12-02T11:34:36.813Z,10.90
2018-12-02T11:37:07.110Z,16.07
2018-12-02T11:39:37.313Z,14.50
2018-12-02T11:42:07.392Z,14.07
2018-12-02T11:44:36.793Z,14.20
2018-12-02T11:47:14.365Z,17.40
2018-12-02T11:49:49.679Z,19.33
2018-12-02T11:52:22.382Z,21.20
2018-12-02T11:54:51.589Z,19.07
2018-12-02T11:57:26.534Z,27.80
2018-12-02T11:59:54.376Z,29.00
2018-12-02T12:02:24.326Z,27.53
2018-12-02T12:04:54.262Z,29.13
2018-12-02T12:07:25.514Z,28.83
2018-12-02T12:09:59.394Z,27.33
2018-12-02T12:12:28.872Z,31.97
2018-12-02T12:14:58.372Z,29.33
2018-12-02T12:17:29.985Z,30.20
2018-12-02T12:19:59.576Z,29.87
2018-12-02T12:22:33.115Z,29.43
2018-12-02T12:25:02.983Z,24.07
2018-12-02T12:27:35.801Z,22.13
2018-12-02T12:30:09.042Z,25.37
2018-12-02T12:32:38.508Z,24.57
2018-12-02T12:35:11.435Z,25.57
2018-12-02T12:37:41.687Z,18.03
2018-12-02T12:40:33.583Z,21.17
2018-12-02T12:43:40.453Z,20.00
2018-12-02T12:46:12.521Z,21.80
2018-12-02T12:48:42.766Z,21.73
2018-12-02T12:51:12.700Z,26.43
2018-12-02T12:53:42.164Z,23.83
2018-12-02T12:56:15.321Z,19.13
2018-12-02T12:58:44.969Z,17.27
2018-12-02T13:01:14.378Z,14.93
2018-12-02T13:03:44.294Z,10.80
2018-12-02T13:06:13.473Z,13.90
2018-12-02T13:08:47.234Z,9.90
2018-12-02T13:11:17.106Z,13.45
2018-12-02T13:13:49.252Z,12.30
2018-12-02T13:16:24.531Z,9.70
2018-12-02T13:18:57.970Z,12.77
2018-12-02T13:21:28.969Z,11.90
2018-12-02T13:23:58.786Z,13.60
2018-12-02T13:26:31.766Z,13.63
2018-12-02T13:29:01.470Z,14.17
2018-12-02T13:31:38.086Z,19.03
2018-12-02T13:34:08.317Z,16.13
2018-12-02T13:36:39.785Z,11.90
2018-12-02T13:39:12.500Z,13.90
2018-12-02T13:41:42.032Z,12.00
2018-12-02T13:44:11.663Z,20.40
2018-12-02T13:46:43.201Z,12.50
2018-12-02T13:49:13.088Z,19.53
2018-12-02T13:51:42.367Z,16.20
2018-12-02T13:54:32.018Z,14.73
2018-12-02T13:57:01.792Z,15.93
2018-12-02T13:59:31.259Z,19.43
2018-12-02T14:02:06.596Z,14.10
2018-12-02T14:04:36.068Z,18.27
2018-12-02T14:07:08.792Z,18.27
2018-12-02T14:09:38.264Z,17.17
2018-12-02T14:12:09.872Z,14.30
2018-12-02T14:14:43.088Z,10.27
2018-12-02T14:17:18.971Z,11.73
2018-12-02T14:19:53.910Z,13.87
2018-12-02T14:22:23.120Z,13.77
2018-12-02T14:24:55.836Z,13.97
2018-12-02T14:27:30.374Z,15.13
2018-12-02T14:29:58.279Z,16.20
2018-12-02T14:32:28.381Z,15.10
2018-12-02T14:34:57.990Z,9.43
2018-12-02T14:37:27.736Z,9.10
2018-12-02T14:39:59.329Z,9.23
2018-12-02T14:42:28.972Z,11.33
2018-12-02T14:44:58.610Z,13.43
2018-12-02T14:47:27.951Z,12.43
2018-12-02T14:50:02.975Z,9.40
2018-12-02T14:52:35.625Z,11.03
2018-12-02T14:55:07.238Z,11.67
2018-12-02T14:57:36.670Z,11.30
2018-12-02T15:00:16.849Z,11.13
2018-12-02T15:02:45.239Z,11.17
2018-12-02T15:05:17.475Z,9.33
2018-12-02T15:07:46.957Z,10.40
2018-12-02T15:10:17.466Z,7.17
2018-12-02T15:12:48.463Z,6.47
2018-12-02T15:15:21.259Z,11.77
2018-12-02T15:17:56.396Z,6.30
2018-12-02T15:20:25.728Z,8.67
2018-12-02T15:22:58.425Z,8.10
2018-12-02T15:25:28.216Z,9.73
2018-12-02T15:27:58.682Z,8.73
2018-12-02T15:30:28.231Z,10.33
2018-12-02T15:32:57.655Z,10.17
2018-12-02T15:35:30.074Z,5.57
2018-12-02T15:37:59.507Z,12.00
2018-12-02T15:40:29.106Z,6.10
2018-12-02T15:42:59.931Z,5.83
2018-12-02T15:45:29.718Z,7.67
2018-12-02T15:47:58.638Z,9.20
2018-12-02T15:50:27.622Z,8.27
2018-12-02T15:52:56.525Z,6.80
2018-12-02T15:55:29.805Z,6.73
2018-12-02T15:57:59.640Z,4.77
2018-12-02T16:00:29.818Z,4.97
2018-12-02T16:02:58.748Z,6.00
2018-12-02T16:05:27.643Z,4.27
2018-12-02T16:07:56.539Z,5.33
2018-12-02T16:10:25.463Z,4.47
2018-12-02T16:12:54.519Z,4.60
2018-12-02T16:15:28.108Z,5.63
2018-12-02T16:17:56.997Z,5.57
2018-12-02T16:20:33.261Z,3.30
2018-12-02T16:23:02.186Z,4.17
2018-12-02T16:25:31.073Z,3.63
2018-12-02T16:27:59.966Z,5.67
2018-12-02T16:30:28.838Z,2.33
2018-12-02T16:32:57.749Z,4.23
2018-12-02T16:35:26.608Z,3.70
2018-12-02T16:37:55.968Z,4.67
2018-12-02T16:40:25.734Z,5.33
2018-12-02T16:42:55.749Z,4.40
2018-12-02T16:45:24.642Z,6.47
2018-12-02T16:47:54.851Z,4.00
2018-12-02T16:50:30.909Z,5.13
2018-12-02T16:53:34.297Z,9.13
2018-12-02T16:56:14.246Z,7.60
2018-12-02T16:59:14.984Z,3.83
2018-12-02T17:01:46.129Z,4.70
2018-12-02T17:04:15.196Z,6.20
2018-12-02T17:06:44.051Z,3.93
2018-12-02T17:09:13.348Z,6.10
2018-12-02T17:11:42.939Z,10.70
2018-12-02T17:14:11.847Z,4.70
2018-12-02T17:16:40.726Z,5.77
2018-12-02T17:19:09.634Z,6.97
2018-12-02T17:21:38.511Z,4.27
2018-12-02T17:24:08.731Z,8.07
2018-12-02T17:26:37.645Z,5.90
2018-12-02T17:29:09.090Z,5.50
2018-12-02T17:31:43.960Z,6.23
2018-12-02T17:34:12.852Z,5.83
2018-12-02T17:36:41.739Z,6.33
2018-12-02T17:39:15.603Z,5.73
2018-12-02T17:41:47.150Z,5.23
2018-12-02T17:44:16.056Z,5.17
2018-12-02T17:46:44.958Z,5.67
2018-12-02T17:49:13.869Z,4.63
2018-12-02T17:51:42.809Z,9.43
2018-12-02T17:54:11.638Z,7.30
2018-12-02T17:56:40.545Z,7.90
2018-12-02T17:59:09.475Z,9.33
2018-12-02T18:01:38.296Z,6.57
2018-12-02T18:04:08.011Z,11.08
2018-12-02T18:06:36.910Z,6.20
2018-12-02T18:09:09.549Z,8.27
2018-12-02T18:11:38.483Z,6.93
2018-12-02T18:14:07.469Z,8.40
2018-12-02T18:16:36.388Z,7.63
2018-12-02T18:19:05.965Z,8.87
2018-12-02T18:21:34.867Z,9.47
2018-12-02T18:24:03.742Z,7.07
2018-12-02T18:26:32.655Z,7.23
2018-12-02T18:29:01.546Z,15.17
2018-12-02T18:31:30.453Z,10.37
2018-12-02T18:33:59.354Z,10.83
2018-12-02T18:36:32.895Z,6.60
2018-12-02T18:39:01.826Z,8.73
2018-12-02T18:41:38.648Z,6.13
2018-12-02T18:44:09.601Z,5.43
2018-12-02T18:46:38.505Z,9.27
2018-12-02T18:49:07.462Z,11.23
2018-12-02T18:51:36.341Z,8.33
2018-12-02T18:54:06.379Z,4.83
2018-12-02T18:56:35.294Z,9.98
2018-12-02T18:59:04.232Z,13.13
2018-12-02T19:01:33.162Z,8.93
2018-12-02T19:04:02.438Z,10.37
2018-12-02T19:06:31.364Z,8.87
2018-12-02T19:09:00.247Z,9.30
2018-12-02T19:11:29.147Z,7.70
2018-12-02T19:13:58.053Z,10.97
2018-12-02T19:16:26.968Z,13.17
2018-12-02T19:18:55.857Z,8.73
2018-12-02T19:21:26.643Z,12.73
2018-12-02T19:23:57.222Z,9.50
2018-12-02T19:26:26.049Z,8.93
2018-12-02T19:28:54.936Z,8.90
2018-12-02T19:31:23.813Z,6.33
2018-12-02T19:33:54.779Z,8.23
2018-12-02T19:36:38.398Z,12.43
2018-12-02T19:39:11.309Z,7.97
2018-12-02T19:41:40.207Z,10.70
2018-12-02T19:44:09.129Z,9.10
2018-12-02T19:46:38.029Z,7.43
2018-12-02T19:49:07.010Z,7.40
2018-12-02T19:51:35.887Z,10.50
2018-12-02T19:54:04.841Z,9.87
2018-12-02T19:56:33.736Z,16.07
2018-12-02T19:59:02.643Z,11.87
2018-12-02T20:01:31.552Z,9.93
2018-12-02T20:04:00.463Z,10.73
2018-12-02T20:06:29.329Z,13.43
2018-12-02T20:08:58.248Z,16.40
2018-12-02T20:11:27.159Z,13.73
2018-12-02T20:13:56.061Z,12.33
2018-12-02T20:16:24.956Z,15.23
2018-12-02T20:18:53.869Z,11.93
2018-12-02T20:21:23.965Z,12.47
2018-12-02T20:24:11.070Z,13.13
2018-12-02T20:26:39.975Z,14.05
2018-12-02T20:29:08.933Z,15.40
2018-12-02T20:31:37.833Z,17.32
2018-12-02T20:34:06.965Z,13.80
2018-12-02T20:36:35.951Z,13.40
2018-12-02T20:39:08.669Z,12.88
2018-12-02T20:41:37.554Z,12.67
2018-12-02T20:44:06.750Z,18.97
2018-12-02T20:46:35.655Z,13.37
2018-12-02T20:49:04.525Z,10.63
2018-12-02T20:51:33.452Z,12.83
2018-12-02T20:54:02.352Z,9.70
2018-12-02T20:56:31.231Z,13.97
2018-12-02T20:59:00.112Z,9.97
2018-12-02T21:01:28.992Z,14.90
2018-12-02T21:03:58.772Z,14.77
2018-12-02T21:06:27.662Z,12.20
2018-12-02T21:08:56.537Z,12.47
2018-12-02T21:11:25.442Z,14.00
2018-12-02T21:13:54.347Z,14.67
2018-12-02T21:16:23.248Z,15.53
2018-12-02T21:18:52.149Z,13.57
2018-12-02T21:21:21.087Z,12.97
2018-12-02T21:23:49.979Z,13.07
2018-12-02T21:26:18.857Z,13.93
2018-12-02T21:28:47.768Z,14.63
2018-12-02T21:31:16.656Z,15.80
2018-12-02T21:33:45.579Z,19.10
2018-12-02T21:36:14.457Z,14.00
2018-12-02T21:38:43.363Z,12.43
2018-12-02T21:41:12.254Z,18.27
2018-12-02T21:43:41.152Z,17.37
2018-12-02T21:46:10.044Z,17.27
2018-12-02T21:48:38.939Z,19.20
2018-12-02T21:51:07.880Z,20.03
2018-12-02T21:53:36.783Z,17.30
2018-12-02T21:56:06.170Z,16.27
2018-12-02T21:58:35.098Z,15.80
2018-12-02T22:01:16.272Z,16.77
2018-12-02T22:03:45.195Z,21.40
2018-12-02T22:06:14.116Z,20.80
2018-12-02T22:08:43.055Z,23.07
2018-12-02T22:11:11.974Z,23.20
2018-12-02T22:13:43.392Z,24.73
2018-12-02T22:16:09.807Z,22.30
2018-12-02T22:18:38.716Z,24.40
2018-12-02T22:21:07.641Z,29.53
2018-12-02T22:23:36.547Z,29.20
2018-12-02T22:26:05.480Z,25.53
2018-12-02T22:28:34.403Z,29.73
2018-12-02T22:31:03.280Z,27.60
2018-12-02T22:33:32.185Z,28.27
2018-12-02T22:36:01.058Z,30.07
2018-12-02T22:38:29.970Z,27.97
2018-12-02T22:40:58.914Z,24.07
2018-12-02T22:43:27.814Z,25.07
2018-12-02T22:45:56.707Z,24.87
2018-12-02T22:48:25.607Z,34.83
2018-12-02T22:50:54.519Z,30.30
2018-12-02T22:53:23.649Z,30.10
2018-12-02T22:55:52.558Z,29.57
2018-12-02T22:58:21.454Z,26.10
2018-12-02T23:01:08.231Z,29.17
2018-12-02T23:03:37.145Z,30.03
2018-12-02T23:06:06.167Z,28.33
2018-12-02T23:08:35.052Z,33.23
2018-12-02T23:11:03.974Z,28.83
2018-12-02T23:13:32.868Z,30.73
2018-12-02T23:16:01.750Z,34.40
2018-12-02T23:18:30.673Z,27.77
2018-12-02T23:20:59.543Z,28.63
2018-12-02T23:23:28.447Z,31.97
2018-12-02T23:25:57.355Z,28.70
2018-12-02T23:28:26.264Z,26.97
2018-12-02T23:30:55.164Z,29.63
2018-12-02T23:33:24.080Z,26.73
2018-12-02T23:35:52.990Z,23.37
2018-12-02T23:38:21.911Z,21.07
2018-12-02T23:40:50.788Z,19.00
2018-12-02T23:43:19.672Z,22.23
2018-12-02T23:45:48.595Z,18.33
2018-12-02T23:48:17.506Z,17.23
2018-12-02T23:50:46.416Z,13.83
2018-12-02T23:53:15.311Z,12.40
2018-12-02T23:55:44.216Z,15.63
2018-12-02T23:58:13.083Z,12.20
